createdAt,value
2022-11-30T00:00:13.913Z,99506.60
2022-11-30T00:01:35.727Z,99503.35
2022-11-30T00:02:37.535Z,99504.98
2022-11-30T00:03:39.497Z,99500.41
2022-11-30T00:04:41.269Z,99504.12
2022-11-30T00:05:43.018Z,99499.70
2022-11-30T00:06:44.756Z,99504.96
2022-11-30T00:07:47.524Z,99504.95
2022-11-30T00:08:57.099Z,99511.63
2022-11-30T00:09:58.924Z,99510.67
2022-11-30T00:11:00.987Z,99510.89
2022-11-30T00:12:02.760Z,99509.88
2022-11-30T00:13:05.077Z,99509.84
2022-11-30T00:14:06.836Z,99506.41
2022-11-30T00:15:13.989Z,99507.80
2022-11-30T00:16:15.893Z,99508.78
2022-11-30T00:17:17.725Z,99507.98
2022-11-30T00:18:19.658Z,99508.31
2022-11-30T00:19:21.475Z,99514.14
2022-11-30T00:20:23.699Z,99511.00
2022-11-30T00:21:25.423Z,99512.42
2022-11-30T00:22:27.195Z,99511.27
2022-11-30T00:23:34.056Z,99511.29
2022-11-30T00:24:35.797Z,99513.13
2022-11-30T00:25:37.590Z,99513.34
2022-11-30T00:26:39.383Z,99511.46
2022-11-30T00:27:41.253Z,99511.64
2022-11-30T00:29:03.071Z,99510.19
2022-11-30T00:30:06.054Z,99512.18
2022-11-30T00:31:12.161Z,99511.58
2022-11-30T00:32:13.999Z,99512.60
2022-11-30T00:33:15.741Z,99512.90
2022-11-30T00:34:17.752Z,99512.93
2022-11-30T00:35:19.463Z,99511.71
2022-11-30T00:36:22.632Z,99513.95
2022-11-30T00:37:24.662Z,99514.41
2022-11-30T00:38:26.753Z,99512.39
2022-11-30T00:39:33.884Z,99511.32
2022-11-30T00:40:37.091Z,99516.21
2022-11-30T00:41:38.800Z,99518.16
2022-11-30T00:42:40.551Z,99515.67
2022-11-30T00:43:42.385Z,99521.19
2022-11-30T00:44:44.321Z,99517.20
2022-11-30T00:45:47.106Z,99516.84
2022-11-30T00:46:48.927Z,99519.79
2022-11-30T00:47:50.700Z,99519.45
2022-11-30T00:48:52.457Z,99523.77
2022-11-30T00:49:54.415Z,99522.81
2022-11-30T00:50:56.212Z,99522.25
2022-11-30T00:51:58.084Z,99525.32
2022-11-30T00:53:00.287Z,99524.19
2022-11-30T00:54:02.108Z,99524.44
2022-11-30T00:55:04.569Z,99523.90
2022-11-30T00:56:07.343Z,99519.33
2022-11-30T00:57:09.093Z,99518.92
2022-11-30T00:58:12.089Z,99517.48
2022-11-30T00:59:15.199Z,99521.07
2022-11-30T01:00:17.337Z,99521.09
2022-11-30T01:01:19.110Z,99514.73
2022-11-30T01:02:21.003Z,99515.68
2022-11-30T01:03:22.839Z,99518.54
2022-11-30T01:04:24.596Z,99520.17
2022-11-30T01:05:26.574Z,99522.87
2022-11-30T01:06:28.771Z,99525.21
2022-11-30T01:07:30.706Z,99525.41
2022-11-30T01:08:33.231Z,99522.95
2022-11-30T01:09:34.962Z,99525.89
2022-11-30T01:10:39.390Z,99526.48
2022-11-30T01:11:41.106Z,99528.13
2022-11-30T01:12:42.995Z,99528.64
2022-11-30T01:13:44.866Z,99527.54
2022-11-30T01:14:46.834Z,99527.51
2022-11-30T01:15:48.865Z,99529.86
2022-11-30T01:16:55.967Z,99530.07
2022-11-30T01:18:01.226Z,99529.81
2022-11-30T01:19:04.018Z,99532.05
2022-11-30T01:20:08.076Z,99531.27
2022-11-30T01:21:13.826Z,99531.09
2022-11-30T01:22:15.588Z,99532.59
2022-11-30T01:23:17.376Z,99533.70
2022-11-30T01:24:19.200Z,99535.16
2022-11-30T01:25:21.091Z,99534.40
2022-11-30T01:26:23.827Z,99537.48
2022-11-30T01:27:25.665Z,99536.92
2022-11-30T01:28:27.597Z,99537.59
2022-11-30T01:29:29.419Z,99539.93
2022-11-30T01:30:31.244Z,99539.46
2022-11-30T01:31:33.233Z,99539.21
2022-11-30T01:32:35.021Z,99541.29
2022-11-30T01:33:36.777Z,99546.36
2022-11-30T01:34:38.482Z,99540.78
2022-11-30T01:35:40.226Z,99542.90
2022-11-30T01:36:43.647Z,99544.86
2022-11-30T01:37:45.518Z,99541.85
2022-11-30T01:38:51.049Z,99544.87
2022-11-30T01:39:52.830Z,99542.62
2022-11-30T01:40:54.618Z,99539.89
2022-11-30T01:41:56.546Z,99542.80
2022-11-30T01:42:58.572Z,99540.09
2022-11-30T01:44:06.033Z,99538.77
2022-11-30T01:45:12.878Z,99544.02
2022-11-30T01:46:17.544Z,99540.27
2022-11-30T01:47:32.089Z,99541.70
2022-11-30T01:48:33.872Z,99541.77
2022-11-30T01:49:47.714Z,99540.64
2022-11-30T01:50:49.482Z,99540.38
2022-11-30T01:52:02.898Z,99538.42
2022-11-30T01:53:10.956Z,99542.97
2022-11-30T01:54:18.042Z,99539.67
2022-11-30T01:55:42.752Z,99533.38
2022-11-30T01:56:52.421Z,99535.52
2022-11-30T01:58:16.887Z,99537.59
2022-11-30T01:59:22.317Z,99533.35
2022-11-30T02:00:24.357Z,99534.45
2022-11-30T02:01:26.331Z,99532.23
2022-11-30T02:02:48.069Z,99533.70
2022-11-30T02:04:00.033Z,99534.48
2022-11-30T02:05:02.598Z,99532.69
2022-11-30T02:06:04.634Z,99536.10
2022-11-30T02:07:08.667Z,99538.35
2022-11-30T02:08:11.755Z,99540.86
2022-11-30T02:09:17.979Z,99542.06
2022-11-30T02:10:28.245Z,99544.00
2022-11-30T02:11:30.089Z,99545.22
2022-11-30T02:13:08.325Z,99541.81
2022-11-30T02:14:26.601Z,99543.80
2022-11-30T02:15:42.137Z,99542.63
2022-11-30T02:17:01.162Z,99542.73
2022-11-30T02:18:13.476Z,99542.56
2022-11-30T02:19:49.574Z,99546.05
2022-11-30T02:20:54.034Z,99546.21
2022-11-30T02:22:33.012Z,99548.14
2022-11-30T02:24:03.981Z,99549.13
2022-11-30T02:25:05.897Z,99549.18
2022-11-30T02:26:50.214Z,99555.16
2022-11-30T02:28:13.022Z,99550.17
2022-11-30T02:29:29.308Z,99549.38
2022-11-30T02:30:37.925Z,99551.56
2022-11-30T02:31:59.482Z,99551.73
2022-11-30T02:33:11.295Z,99548.45
2022-11-30T02:34:18.380Z,99549.23
2022-11-30T02:35:27.147Z,99548.63
2022-11-30T02:36:31.701Z,99548.63
2022-11-30T02:37:37.009Z,99547.84
2022-11-30T02:38:40.693Z,99547.51
2022-11-30T02:39:44.200Z,99545.88
2022-11-30T02:40:46.281Z,99546.84
2022-11-30T02:41:48.153Z,99546.15
2022-11-30T02:42:53.941Z,99545.42
2022-11-30T02:43:55.855Z,99547.04
2022-11-30T02:44:58.032Z,99547.21
2022-11-30T02:46:26.634Z,99542.70
2022-11-30T02:47:37.855Z,99544.53
2022-11-30T02:48:50.136Z,99550.38
2022-11-30T02:50:01.173Z,99551.86
2022-11-30T02:51:07.905Z,99547.36
2022-11-30T02:52:12.888Z,99550.84
2022-11-30T02:53:14.739Z,99547.48
2022-11-30T02:54:18.381Z,99547.25
2022-11-30T02:55:20.757Z,99548.92
2022-11-30T02:56:23.108Z,99547.27
2022-11-30T02:57:24.847Z,99549.48
2022-11-30T02:58:26.671Z,99545.20
2022-11-30T02:59:29.589Z,99546.52
2022-11-30T03:00:32.048Z,99549.46
2022-11-30T03:01:33.889Z,99548.44
2022-11-30T03:02:35.737Z,99550.10
2022-11-30T03:03:37.624Z,99551.98
2022-11-30T03:04:39.409Z,99550.98
2022-11-30T03:05:41.176Z,99549.42
2022-11-30T03:06:43.219Z,99551.96
2022-11-30T03:07:45.248Z,99555.42
2022-11-30T03:08:47.036Z,99558.34
2022-11-30T03:09:48.982Z,99563.08
2022-11-30T03:10:50.704Z,99562.34
2022-11-30T03:11:52.467Z,99565.80
2022-11-30T03:12:58.670Z,99563.95
2022-11-30T03:14:00.508Z,99565.05
2022-11-30T03:15:02.310Z,99565.60
2022-11-30T03:16:11.858Z,99562.19
2022-11-30T03:17:13.764Z,99565.42
2022-11-30T03:18:15.500Z,99563.95
2022-11-30T03:19:17.336Z,99566.11
2022-11-30T03:20:19.112Z,99567.18
2022-11-30T03:21:20.889Z,99569.56
2022-11-30T03:22:23.729Z,99570.16
2022-11-30T03:23:25.467Z,99569.10
2022-11-30T03:24:27.392Z,99569.72
2022-11-30T03:25:29.819Z,99570.92
2022-11-30T03:26:31.572Z,99571.42
2022-11-30T03:27:33.573Z,99568.41
2022-11-30T03:28:36.907Z,99566.05
2022-11-30T03:29:39.357Z,99571.17
2022-11-30T03:30:41.361Z,99572.95
2022-11-30T03:31:43.096Z,99570.04
2022-11-30T03:32:44.816Z,99569.96
2022-11-30T03:33:46.560Z,99571.17
2022-11-30T03:34:48.543Z,99572.40
2022-11-30T03:36:02.510Z,99568.10
2022-11-30T03:37:04.328Z,99568.80
2022-11-30T03:38:06.221Z,99569.89
2022-11-30T03:39:08.012Z,99571.14
2022-11-30T03:40:10.535Z,99573.14
2022-11-30T03:41:16.479Z,99572.68
2022-11-30T03:42:18.331Z,99573.66
2022-11-30T03:43:20.087Z,99574.15
2022-11-30T03:44:21.903Z,99576.10
2022-11-30T03:45:23.654Z,99576.64
2022-11-30T03:46:27.230Z,99576.67
2022-11-30T03:47:29.222Z,99577.21
2022-11-30T03:48:31.671Z,99577.36
2022-11-30T03:49:33.512Z,99575.36
2022-11-30T03:50:35.222Z,99580.48
2022-11-30T03:51:37.001Z,99578.29
2022-11-30T03:52:38.833Z,99579.23
2022-11-30T03:53:41.349Z,99581.80
2022-11-30T03:54:43.149Z,99581.79
2022-11-30T03:55:45.355Z,99583.67
2022-11-30T03:56:47.133Z,99582.82
2022-11-30T03:57:48.976Z,99583.51
2022-11-30T03:58:51.303Z,99584.30
2022-11-30T03:59:53.073Z,99586.17
2022-11-30T04:01:05.876Z,99587.77
2022-11-30T04:02:07.660Z,99588.44
2022-11-30T04:03:09.786Z,99588.66
2022-11-30T04:04:12.629Z,99589.86
2022-11-30T04:05:14.554Z,99588.92
2022-11-30T04:06:17.923Z,99586.89
2022-11-30T04:07:19.681Z,99586.98
2022-11-30T04:08:21.526Z,99585.95
2022-11-30T04:09:23.287Z,99583.66
2022-11-30T04:10:25.062Z,99587.90
2022-11-30T04:11:26.816Z,99586.48
2022-11-30T04:12:28.579Z,99584.26
2022-11-30T04:13:32.299Z,99582.94
2022-11-30T04:14:34.041Z,99582.59
2022-11-30T04:15:35.813Z,99579.75
2022-11-30T04:16:37.593Z,99580.41
2022-11-30T04:17:39.319Z,99581.04
2022-11-30T04:18:41.442Z,99581.31
2022-11-30T04:19:43.158Z,99585.17
2022-11-30T04:20:45.093Z,99583.21
2022-11-30T04:21:46.837Z,99583.83
2022-11-30T04:22:48.621Z,99583.92
2022-11-30T04:23:50.385Z,99584.88
2022-11-30T04:24:52.167Z,99587.62
2022-11-30T04:25:53.889Z,99586.70
2022-11-30T04:26:55.612Z,99589.07
2022-11-30T04:27:57.469Z,99585.86
2022-11-30T04:29:03.228Z,99586.94
2022-11-30T04:30:07.207Z,99590.61
2022-11-30T04:31:09.702Z,99591.79
2022-11-30T04:32:11.565Z,99590.70
2022-11-30T04:33:15.392Z,99592.30
2022-11-30T04:34:17.185Z,99590.14
2022-11-30T04:35:18.926Z,99589.08
2022-11-30T04:36:21.549Z,99592.60
2022-11-30T04:37:23.287Z,99593.20
2022-11-30T04:38:26.354Z,99595.64
2022-11-30T04:39:28.102Z,99595.90
2022-11-30T04:40:29.819Z,99591.69
2022-11-30T04:41:31.715Z,99588.13
2022-11-30T04:42:33.451Z,99592.08
2022-11-30T04:43:36.333Z,99589.88
2022-11-30T04:44:38.058Z,99592.51
2022-11-30T04:45:41.067Z,99588.46
2022-11-30T04:46:42.908Z,99588.23
2022-11-30T04:47:44.710Z,99590.64
2022-11-30T04:48:46.451Z,99592.08
2022-11-30T04:49:48.263Z,99589.98
2022-11-30T04:50:50.115Z,99591.16
2022-11-30T04:51:51.869Z,99593.49
2022-11-30T04:52:53.812Z,99592.40
2022-11-30T04:53:55.609Z,99595.30
2022-11-30T04:54:57.311Z,99598.05
2022-11-30T04:55:59.369Z,99594.25
2022-11-30T04:57:01.150Z,99598.36
2022-11-30T04:58:02.913Z,99600.46
2022-11-30T04:59:04.803Z,99602.05
2022-11-30T05:00:07.486Z,99602.27
2022-11-30T05:01:09.412Z,99603.55
2022-11-30T05:02:11.434Z,99603.48
2022-11-30T05:03:13.207Z,99602.52
2022-11-30T05:04:15.132Z,99599.72
2022-11-30T05:05:17.409Z,99603.63
2022-11-30T05:06:19.209Z,99601.11
2022-11-30T05:07:21.019Z,99600.29
2022-11-30T05:08:23.045Z,99603.56
2022-11-30T05:09:24.797Z,99605.28
2022-11-30T05:10:28.252Z,99602.20
2022-11-30T05:11:30.034Z,99606.51
2022-11-30T05:12:32.267Z,99605.58
2022-11-30T05:13:34.017Z,99603.73
2022-11-30T05:14:35.862Z,99602.83
2022-11-30T05:15:37.625Z,99603.68
2022-11-30T05:16:39.385Z,99601.98
2022-11-30T05:17:41.173Z,99604.83
2022-11-30T05:18:42.916Z,99601.41
2022-11-30T05:19:44.659Z,99603.27
2022-11-30T05:20:53.511Z,99600.62
2022-11-30T05:21:55.385Z,99608.23
2022-11-30T05:22:57.711Z,99604.47
2022-11-30T05:23:59.568Z,99601.27
2022-11-30T05:25:01.653Z,99602.79
2022-11-30T05:26:04.027Z,99604.73
2022-11-30T05:27:12.686Z,99604.77
2022-11-30T05:28:16.582Z,99605.55
2022-11-30T05:29:18.500Z,99603.15
2022-11-30T05:30:20.374Z,99606.39
2022-11-30T05:31:22.192Z,99605.06
2022-11-30T05:32:24.056Z,99605.41
2022-11-30T05:33:25.783Z,99608.22
2022-11-30T05:34:28.009Z,99603.48
2022-11-30T05:35:29.797Z,99604.58
2022-11-30T05:36:31.549Z,99608.44
2022-11-30T05:37:33.320Z,99608.52
2022-11-30T05:38:35.055Z,99610.44
2022-11-30T05:39:36.909Z,99610.08
2022-11-30T05:40:38.706Z,99610.45
2022-11-30T05:41:40.473Z,99611.80
2022-11-30T05:42:42.395Z,99612.69
2022-11-30T05:43:44.856Z,99609.73
2022-11-30T05:44:48.037Z,99610.27
2022-11-30T05:45:50.050Z,99612.92
2022-11-30T05:46:51.857Z,99614.19
2022-11-30T05:47:54.067Z,99614.16
2022-11-30T05:48:55.813Z,99611.87
2022-11-30T05:49:57.561Z,99611.02
2022-11-30T05:51:17.566Z,99611.12
2022-11-30T05:52:19.314Z,99610.77
2022-11-30T05:53:21.122Z,99614.50
2022-11-30T05:54:22.865Z,99616.75
2022-11-30T05:55:25.102Z,99619.20
2022-11-30T05:56:26.882Z,99617.98
2022-11-30T05:57:28.690Z,99619.33
2022-11-30T05:58:30.573Z,99622.52
2022-11-30T05:59:32.452Z,99621.22
2022-11-30T06:00:34.217Z,99623.04
2022-11-30T06:01:36.003Z,99626.95
2022-11-30T06:02:37.861Z,99629.16
2022-11-30T06:03:39.850Z,99627.11
2022-11-30T06:04:41.632Z,99625.48
2022-11-30T06:05:43.355Z,99629.33
2022-11-30T06:06:45.090Z,99628.09
2022-11-30T06:07:46.827Z,99631.83
2022-11-30T06:08:50.622Z,99629.73
2022-11-30T06:09:52.348Z,99632.98
2022-11-30T06:10:54.542Z,99632.23
2022-11-30T06:11:56.245Z,99632.27
2022-11-30T06:12:58.020Z,99639.60
2022-11-30T06:13:59.811Z,99636.90
2022-11-30T06:15:01.603Z,99635.67
2022-11-30T06:16:04.758Z,99636.97
2022-11-30T06:17:06.801Z,99640.11
2022-11-30T06:18:12.665Z,99640.94
2022-11-30T06:19:14.406Z,99640.23
2022-11-30T06:20:16.302Z,99638.00
2022-11-30T06:21:22.724Z,99636.48
2022-11-30T06:22:26.328Z,99639.82
2022-11-30T06:23:28.675Z,99640.23
2022-11-30T06:24:30.550Z,99637.07
2022-11-30T06:25:32.459Z,99636.34
2022-11-30T06:26:34.170Z,99640.51
2022-11-30T06:27:35.897Z,99638.42
2022-11-30T06:28:38.339Z,99641.55
2022-11-30T06:29:40.115Z,99641.95
2022-11-30T06:30:42.024Z,99642.75
2022-11-30T06:31:44.326Z,99646.39
2022-11-30T06:32:51.947Z,99644.98
2022-11-30T06:33:57.557Z,99650.31
2022-11-30T06:34:59.362Z,99651.88
2022-11-30T06:36:01.225Z,99652.04
2022-11-30T06:37:02.972Z,99649.52
2022-11-30T06:38:04.836Z,99652.25
2022-11-30T06:39:06.977Z,99653.37
2022-11-30T06:40:12.463Z,99654.02
2022-11-30T06:41:14.322Z,99653.44
2022-11-30T06:42:16.189Z,99657.54
2022-11-30T06:43:18.824Z,99663.40
2022-11-30T06:44:20.980Z,99667.89
2022-11-30T06:45:22.834Z,99667.13
2022-11-30T06:46:25.083Z,99669.12
2022-11-30T06:47:28.161Z,99666.23
2022-11-30T06:48:30.199Z,99668.02
2022-11-30T06:49:31.959Z,99666.25
2022-11-30T06:50:34.011Z,99665.73
2022-11-30T06:51:37.333Z,99661.25
2022-11-30T06:52:39.063Z,99659.50
2022-11-30T06:53:44.391Z,99661.02
2022-11-30T06:54:46.505Z,99662.83
2022-11-30T06:55:48.643Z,99660.74
2022-11-30T06:56:50.439Z,99662.33
2022-11-30T06:57:52.210Z,99663.39
2022-11-30T06:58:54.409Z,99662.63
2022-11-30T06:59:57.331Z,99664.16
2022-11-30T07:00:59.268Z,99663.95
2022-11-30T07:02:07.541Z,99665.71
2022-11-30T07:03:11.956Z,99664.72
2022-11-30T07:04:13.707Z,99669.88
2022-11-30T07:05:15.730Z,99669.25
2022-11-30T07:06:17.869Z,99671.38
2022-11-30T07:07:19.973Z,99673.34
2022-11-30T07:08:21.980Z,99673.20
2022-11-30T07:09:23.727Z,99671.21
2022-11-30T07:10:25.500Z,99675.55
2022-11-30T07:11:27.863Z,99674.15
2022-11-30T07:12:29.634Z,99673.50
2022-11-30T07:13:31.770Z,99677.23
2022-11-30T07:14:33.560Z,99674.95
2022-11-30T07:15:35.831Z,99680.06
2022-11-30T07:16:38.215Z,99679.30
2022-11-30T07:17:40.162Z,99680.15
2022-11-30T07:18:41.962Z,99678.92
2022-11-30T07:19:43.780Z,99683.75
2022-11-30T07:20:45.497Z,99683.15
2022-11-30T07:21:47.222Z,99682.11
2022-11-30T07:22:48.955Z,99684.40
2022-11-30T07:24:09.485Z,99685.20
2022-11-30T07:25:29.608Z,99688.30
2022-11-30T07:26:31.435Z,99688.77
2022-11-30T07:27:33.183Z,99690.75
2022-11-30T07:28:46.834Z,99688.95
2022-11-30T07:29:51.600Z,99690.46
2022-11-30T07:30:53.423Z,99690.48
2022-11-30T07:31:55.866Z,99690.21
2022-11-30T07:32:57.763Z,99689.20
2022-11-30T07:34:05.750Z,99689.46
2022-11-30T07:35:08.119Z,99694.05
2022-11-30T07:36:10.377Z,99693.32
2022-11-30T07:37:12.310Z,99689.34
2022-11-30T07:38:14.089Z,99689.13
2022-11-30T07:39:16.073Z,99689.91
2022-11-30T07:40:18.041Z,99690.58
2022-11-30T07:41:19.778Z,99689.98
2022-11-30T07:42:23.205Z,99683.36
2022-11-30T07:43:25.008Z,99686.36
2022-11-30T07:44:28.040Z,99684.84
2022-11-30T07:45:29.900Z,99686.20
2022-11-30T07:46:36.192Z,99686.73
2022-11-30T07:47:38.027Z,99687.25
2022-11-30T07:48:40.163Z,99689.81
2022-11-30T07:49:41.998Z,99689.09
2022-11-30T07:50:43.775Z,99691.05
2022-11-30T07:51:45.739Z,99687.91
2022-11-30T07:52:47.490Z,99686.15
2022-11-30T07:53:50.437Z,99685.31
2022-11-30T07:54:52.224Z,99684.63
2022-11-30T07:55:56.985Z,99682.71
2022-11-30T07:56:58.956Z,99686.62
2022-11-30T07:58:00.724Z,99687.15
2022-11-30T07:59:03.763Z,99686.99
2022-11-30T08:00:06.469Z,99689.84
2022-11-30T08:01:17.314Z,99691.08
2022-11-30T08:02:19.346Z,99689.61
2022-11-30T08:03:21.402Z,99688.82
2022-11-30T08:04:23.524Z,99685.34
2022-11-30T08:05:25.320Z,99684.45
2022-11-30T08:06:29.826Z,99683.35
2022-11-30T08:07:31.685Z,99687.52
2022-11-30T08:08:36.529Z,99683.66
2022-11-30T08:09:38.358Z,99681.36
2022-11-30T08:10:40.099Z,99682.59
2022-11-30T08:11:42.061Z,99685.94
2022-11-30T08:12:43.774Z,99687.35
2022-11-30T08:13:45.960Z,99687.95
2022-11-30T08:15:18.188Z,99686.44
2022-11-30T08:16:19.064Z,99689.81
2022-11-30T08:17:20.862Z,99692.46
2022-11-30T08:18:22.687Z,99691.43
2022-11-30T08:19:24.439Z,99692.55
2022-11-30T08:20:26.219Z,99687.99
2022-11-30T08:21:28.007Z,99691.45
2022-11-30T08:22:30.101Z,99693.36
2022-11-30T08:23:38.040Z,99691.33
2022-11-30T08:24:39.846Z,99694.70
2022-11-30T08:25:41.642Z,99696.05
2022-11-30T08:26:43.461Z,99696.88
2022-11-30T08:27:45.289Z,99696.52
2022-11-30T08:28:49.134Z,99697.27
2022-11-30T08:29:51.045Z,99701.30
2022-11-30T08:30:52.877Z,99696.71
2022-11-30T08:31:55.419Z,99699.92
2022-11-30T08:32:58.062Z,99698.88
2022-11-30T08:34:02.982Z,99699.40
2022-11-30T08:35:05.339Z,99701.23
2022-11-30T08:36:08.091Z,99697.71
2022-11-30T08:37:09.936Z,99699.14
2022-11-30T08:38:11.774Z,99699.00
2022-11-30T08:39:14.005Z,99699.97
2022-11-30T08:40:15.946Z,99697.58
2022-11-30T08:41:21.984Z,99697.06
2022-11-30T08:42:23.729Z,99696.83
2022-11-30T08:43:25.506Z,99696.98
2022-11-30T08:44:28.372Z,99695.35
2022-11-30T08:45:30.193Z,99698.94
2022-11-30T08:47:55.425Z,99693.15
2022-11-30T08:49:12.997Z,99694.83
2022-11-30T08:50:19.550Z,99692.40
2022-11-30T08:51:21.927Z,99690.77
2022-11-30T08:52:24.045Z,99692.19
2022-11-30T08:53:26.376Z,99688.00
2022-11-30T08:54:28.105Z,99686.27
2022-11-30T08:55:29.887Z,99687.66
2022-11-30T08:56:31.670Z,99685.55
2022-11-30T08:57:34.002Z,99686.83
2022-11-30T08:58:37.943Z,99687.20
2022-11-30T08:59:40.095Z,99688.58
2022-11-30T09:00:42.071Z,99688.85
2022-11-30T09:01:43.893Z,99689.05
2022-11-30T09:02:45.718Z,99690.30
2022-11-30T09:03:50.613Z,99687.48
2022-11-30T09:04:53.543Z,99689.48
2022-11-30T09:05:55.359Z,99689.23
2022-11-30T09:06:59.389Z,99689.44
2022-11-30T09:08:01.455Z,99686.84
2022-11-30T09:09:03.576Z,99686.15
2022-11-30T09:10:06.116Z,99686.45
2022-11-30T09:11:19.923Z,99688.80
2022-11-30T09:12:21.934Z,99690.24
2022-11-30T09:13:23.863Z,99690.12
2022-11-30T09:14:25.623Z,99694.20
2022-11-30T09:15:28.018Z,99695.60
2022-11-30T09:16:30.034Z,99692.44
2022-11-30T09:17:32.166Z,99697.66
2022-11-30T09:18:34.178Z,99697.83
2022-11-30T09:19:35.982Z,99700.48
2022-11-30T09:20:37.778Z,99698.06
2022-11-30T09:21:39.641Z,99697.17
2022-11-30T09:22:42.161Z,99699.70
2022-11-30T09:23:45.968Z,99698.10
2022-11-30T09:24:48.147Z,99699.30
2022-11-30T09:25:58.694Z,99699.86
2022-11-30T09:27:00.837Z,99694.40
2022-11-30T09:28:02.632Z,99699.36
2022-11-30T09:29:04.599Z,99698.91
2022-11-30T09:30:07.277Z,99699.72
2022-11-30T09:31:19.466Z,99700.38
2022-11-30T09:32:23.449Z,99697.20
2022-11-30T09:33:25.225Z,99698.95
2022-11-30T09:34:27.011Z,99694.73
2022-11-30T09:35:28.810Z,99696.42
2022-11-30T09:36:31.097Z,99697.21
2022-11-30T09:37:33.453Z,99695.50
2022-11-30T09:38:36.136Z,99697.40
2022-11-30T09:39:38.049Z,99700.70
2022-11-30T09:40:41.864Z,99701.68
2022-11-30T09:41:55.811Z,99697.02
2022-11-30T09:43:15.172Z,99696.64
2022-11-30T09:44:46.538Z,99694.64
2022-11-30T09:45:57.599Z,99700.86
2022-11-30T09:47:12.278Z,99705.34
2022-11-30T09:48:22.944Z,99704.09
2022-11-30T09:49:30.801Z,99698.19
2022-11-30T09:50:47.297Z,99702.70
2022-11-30T09:51:52.524Z,99700.28
2022-11-30T09:53:00.900Z,99704.42
2022-11-30T09:54:12.205Z,99708.54
2022-11-30T09:55:26.836Z,99704.52
2022-11-30T09:56:37.808Z,99702.79
2022-11-30T09:57:47.075Z,99705.90
2022-11-30T09:58:56.785Z,99704.73
2022-11-30T10:00:02.963Z,99704.01
2022-11-30T10:01:19.250Z,99713.08
2022-11-30T10:02:38.184Z,99710.02
2022-11-30T10:03:40.455Z,99707.85
2022-11-30T10:04:42.757Z,99707.82
2022-11-30T10:06:31.090Z,99702.17
2022-11-30T10:07:57.750Z,99700.44
2022-11-30T10:09:21.015Z,99696.63
2022-11-30T10:10:40.917Z,99696.63
2022-11-30T10:12:00.217Z,99701.59
2022-11-30T10:13:24.780Z,99700.16
2022-11-30T10:14:47.402Z,99703.91
2022-11-30T10:16:14.123Z,99703.94
2022-11-30T10:17:36.085Z,99705.59
2022-11-30T10:18:38.124Z,99703.55
2022-11-30T10:20:11.679Z,99704.90
2022-11-30T10:21:13.294Z,99705.67
2022-11-30T10:22:48.049Z,99704.27
2022-11-30T10:24:11.285Z,99705.48
2022-11-30T10:25:29.065Z,99705.83
2022-11-30T10:26:38.142Z,99704.90
2022-11-30T10:27:52.536Z,99704.97
2022-11-30T10:29:02.807Z,99702.65
2022-11-30T10:30:16.054Z,99702.40
2022-11-30T10:31:20.649Z,99701.30
2022-11-30T10:32:33.539Z,99700.88
2022-11-30T10:33:49.608Z,99698.91
2022-11-30T10:34:58.434Z,99696.46
2022-11-30T10:36:12.422Z,99697.56
2022-11-30T10:37:22.783Z,99698.98
2022-11-30T10:38:31.806Z,99699.14
2022-11-30T10:40:00.995Z,99697.20
2022-11-30T10:41:16.282Z,99700.02
2022-11-30T10:42:39.166Z,99702.05
2022-11-30T10:43:51.827Z,99702.63
2022-11-30T10:45:15.365Z,99704.61
2022-11-30T10:46:33.002Z,99707.37
2022-11-30T10:47:40.825Z,99709.01
2022-11-30T10:48:54.560Z,99709.29
2022-11-30T10:49:56.373Z,99707.40
2022-11-30T10:51:00.195Z,99709.95
2022-11-30T10:52:07.381Z,99711.34
2022-11-30T10:53:12.365Z,99706.45
2022-11-30T10:54:20.336Z,99706.10
2022-11-30T10:55:25.150Z,99705.84
2022-11-30T10:56:26.941Z,99702.05
2022-11-30T10:57:32.474Z,99701.98
2022-11-30T10:58:40.222Z,99700.73
2022-11-30T10:59:48.251Z,99706.67
2022-11-30T11:01:04.286Z,99704.05
2022-11-30T11:02:34.810Z,99704.55
2022-11-30T11:03:38.107Z,99704.77
2022-11-30T11:04:39.951Z,99702.60
2022-11-30T11:05:42.036Z,99699.80
2022-11-30T11:06:56.896Z,99696.72
2022-11-30T11:08:17.138Z,99696.52
2022-11-30T11:09:36.440Z,99693.98
2022-11-30T11:10:48.222Z,99694.23
2022-11-30T11:11:59.573Z,99693.43
2022-11-30T11:13:01.477Z,99692.61
2022-11-30T11:14:20.439Z,99694.87
2022-11-30T11:15:25.977Z,99691.23
2022-11-30T11:16:27.824Z,99690.70
2022-11-30T11:17:33.049Z,99693.13
2022-11-30T11:18:55.457Z,99689.09
2022-11-30T11:19:57.322Z,99687.46
2022-11-30T11:21:14.513Z,99684.75
2022-11-30T11:22:26.075Z,99684.89
2022-11-30T11:23:37.419Z,99684.64
2022-11-30T11:24:39.883Z,99684.67
2022-11-30T11:25:43.146Z,99685.26
2022-11-30T11:26:53.588Z,99685.59
2022-11-30T11:28:04.478Z,99683.37
2022-11-30T11:29:06.564Z,99680.73
2022-11-30T11:30:08.951Z,99680.48
2022-11-30T11:31:37.864Z,99681.70
2022-11-30T11:32:39.747Z,99680.08
2022-11-30T11:33:52.002Z,99682.02
2022-11-30T11:34:54.566Z,99680.31
2022-11-30T11:36:14.891Z,99684.45
2022-11-30T11:37:28.964Z,99686.19
2022-11-30T11:38:41.865Z,99688.81
2022-11-30T11:39:43.675Z,99691.02
2022-11-30T11:40:54.972Z,99688.94
2022-11-30T11:41:57.188Z,99692.56
2022-11-30T11:42:59.784Z,99693.30
2022-11-30T11:44:21.451Z,99694.14
2022-11-30T11:45:26.230Z,99691.88
2022-11-30T11:46:29.964Z,99688.46
2022-11-30T11:47:41.158Z,99686.04
2022-11-30T11:48:57.827Z,99686.55
2022-11-30T11:50:43.248Z,99689.49
2022-11-30T11:51:45.264Z,99691.86
2022-11-30T11:52:47.331Z,99690.85
2022-11-30T11:54:11.366Z,99692.20
2022-11-30T11:55:19.093Z,99689.66
2022-11-30T11:56:36.502Z,99687.26
2022-11-30T11:57:46.049Z,99688.66
2022-11-30T11:58:51.740Z,99686.95
2022-11-30T12:00:15.697Z,99690.88
2022-11-30T12:01:56.227Z,99694.95
2022-11-30T12:03:33.906Z,99696.83
2022-11-30T12:04:46.727Z,99698.30
2022-11-30T12:05:56.531Z,99701.66
2022-11-30T12:07:04.252Z,99697.81
2022-11-30T12:08:05.973Z,99699.88
2022-11-30T12:09:18.318Z,99702.63
2022-11-30T12:10:52.457Z,99700.98
2022-11-30T12:11:55.020Z,99702.15
2022-11-30T12:12:59.351Z,99701.04
2022-11-30T12:14:09.312Z,99700.73
2022-11-30T12:15:15.148Z,99700.92
2022-11-30T12:16:28.933Z,99699.73
2022-11-30T12:18:01.692Z,99700.56
2022-11-30T12:19:20.433Z,99703.75
2022-11-30T12:20:44.088Z,99702.34
2022-11-30T12:22:13.420Z,99700.77
2022-11-30T12:23:44.699Z,99702.30
2022-11-30T12:25:08.723Z,99706.57
2022-11-30T12:26:34.958Z,99706.48
2022-11-30T12:28:17.216Z,99703.69
2022-11-30T12:29:41.407Z,99702.20
2022-11-30T12:31:01.352Z,99703.23
2022-11-30T12:32:13.787Z,99701.46
2022-11-30T12:33:47.388Z,99705.69
2022-11-30T12:35:14.688Z,99706.45
2022-11-30T12:36:43.894Z,99711.58
2022-11-30T12:38:02.855Z,99713.33
2022-11-30T12:39:38.723Z,99713.97
2022-11-30T12:40:59.020Z,99715.48
2022-11-30T12:42:28.800Z,99715.27
2022-11-30T12:43:51.425Z,99713.08
2022-11-30T12:45:11.665Z,99716.02
2022-11-30T12:46:42.114Z,99715.51
2022-11-30T12:48:08.323Z,99715.91
2022-11-30T12:49:46.852Z,99711.90
2022-11-30T12:51:10.411Z,99711.17
2022-11-30T12:52:14.791Z,99708.98
2022-11-30T12:53:22.578Z,99707.20
2022-11-30T12:54:42.139Z,99707.40
2022-11-30T12:55:59.166Z,99713.48
2022-11-30T12:57:23.694Z,99712.03
2022-11-30T12:58:46.533Z,99712.34
2022-11-30T13:00:06.427Z,99717.09